FAOB

Overberg Airport

Overberg, South Africa
METAR FAOB 201700Z AUTO 14019KT //// // ////// 16/07 Q1031
Observed Flight Rules
Oct-20 @ 17:00 UTC (an hour ago)
Wind
140° at 19 knots
Temperatures Readings
Current 16°C / 61°F
Dewpoint 7°C / 45°F
Humidity 55%
Altimeter 30.44" Hg
Pressure 1031 hPa
Elevation 75
METAR FAOB 201700Z AUTO 14019KT //// // ////// 16/07 Q1031
Observed Flight Rules
Oct-20 @ 17:00 UTC
(an hour ago)
Wind
140° at 19 knots
Temperature Dewpoint
16°C / 61°F 7°C / 45°F
Humidity Altimeter Pressure
55% 30.44" Hg 1031 hPa